< < Back
Terminal Aerodrome Forecast


Current Version              Previous Versions:   1  2  3  4  5  6  7  8  9  

Terminal Aerodrome Forecast

542
FTUS42 KMLB 161500 AAA
TAFMCO
TAF AMD
KMCO 161509Z 1615/1712 34010KT P6SM FEW025 SCT090 BKN130
     FM161800 28007KT P6SM VCTS SCT040CB BKN080
      TEMPO 1618/1621 3SM TSRA BKN035CB OVC050
     FM170000 26004KT P6SM SCT080 OVC150=

Latest METAR

456
SAUS70 KWBC 161900 RRN
MTRMCO
METAR KMCO 161853Z 28009KT 10SM SCT045 BKN060 OVC250 31/21 A3002 RMK AO2
SLP162 T03110206


USA.gov is the U.S. government's official web portal to all federal, state and local government web resources and services.